sensor_id;sensor_type;location;lat;lon;timestamp;P1;P2;P0
53658;PMS5003;41524;35.624;139.698;2023-03-17T00:05:13;33.00;29.00;
53658;PMS5003;41524;35.624;139.698;2023-03-17T00:10:12;29.00;25.00;
53658;PMS5003;41524;35.624;139.698;2023-03-17T00:15:20;40.00;37.00;
53658;PMS5003;41524;35.624;139.698;2023-03-17T00:20:12;30.00;29.00;
53658;PMS5003;41524;35.624;139.698;2023-03-17T00:25:16;37.00;36.00;
53658;PMS5003;41524;35.624;139.698;2023-03-17T00:30:15;32.00;29.00;
53658;PMS5003;41524;35.624;139.698;2023-03-17T00:35:19;34.00;33.00;
53658;PMS5003;41524;35.624;139.698;2023-03-17T00:40:15;33.00;32.00;
53658;PMS5003;41524;35.624;139.698;2023-03-17T00:45:09;30.00;27.00;
53658;PMS5003;41524;35.624;139.698;2023-03-17T00:50:10;25.00;23.00;
53658;PMS5003;41524;35.624;139.698;2023-03-17T00:55:10;25.00;22.00;
53658;PMS5003;41524;35.624;139.698;2023-03-17T01:00:17;30.00;22.00;
53658;PMS5003;41524;35.624;139.698;2023-03-17T01:05:14;32.00;31.00;
53658;PMS5003;41524;35.624;139.698;2023-03-17T01:10:11;21.00;20.00;
53658;PMS5003;41524;35.624;139.698;2023-03-17T01:15:10;31.00;30.00;
53658;PMS5003;41524;35.624;139.698;2023-03-17T01:20:12;29.00;27.00;
53658;PMS5003;41524;35.624;139.698;2023-03-17T01:25:14;30.00;26.00;
53658;PMS5003;41524;35.624;139.698;2023-03-17T01:30:21;24.00;22.00;
53658;PMS5003;41524;35.624;139.698;2023-03-17T01:35:20;26.00;24.00;
53658;PMS5003;41524;35.624;139.698;2023-03-17T01:40:15;37.00;32.00;
53658;PMS5003;41524;35.624;139.698;2023-03-17T01:46:12;23.00;22.00;
53658;PMS5003;41524;35.624;139.698;2023-03-17T01:50:09;22.00;21.00;
53658;PMS5003;41524;35.624;139.698;2023-03-17T01:55:10;27.00;24.00;
53658;PMS5003;41524;35.624;139.698;2023-03-17T02:00:15;23.00;21.00;
53658;PMS5003;41524;35.624;139.698;2023-03-17T02:05:10;22.00;21.00;
53658;PMS5003;41524;35.624;139.698;2023-03-17T02:10:09;20.00;18.00;
53658;PMS5003;41524;35.624;139.698;2023-03-17T02:15:14;24.00;19.00;
53658;PMS5003;41524;35.624;139.698;2023-03-17T02:25:10;17.00;17.00;
53658;PMS5003;41524;35.624;139.698;2023-03-17T02:30:11;25.00;23.00;
53658;PMS5003;41524;35.624;139.698;2023-03-17T02:35:11;16.00;14.00;
53658;PMS5003;41524;35.624;139.698;2023-03-17T02:40:12;20.00;16.00;
53658;PMS5003;41524;35.624;139.698;2023-03-17T02:45:13;16.00;14.00;
53658;PMS5003;41524;35.624;139.698;2023-03-17T02:50:14;27.00;20.00;
53658;PMS5003;41524;35.624;139.698;2023-03-17T02:55:09;14.00;12.00;
53658;PMS5003;41524;35.624;139.698;2023-03-17T03:00:15;16.00;15.00;
53658;PMS5003;41524;35.624;139.698;2023-03-17T03:05:09;18.00;15.00;
53658;PMS5003;41524;35.624;139.698;2023-03-17T03:10:13;23.00;20.00;
53658;PMS5003;41524;35.624;139.698;2023-03-17T03:15:10;20.00;17.00;
53658;PMS5003;41524;35.624;139.698;2023-03-17T03:20:09;23.00;17.00;
53658;PMS5003;41524;35.624;139.698;2023-03-17T03:25:10;21.00;18.00;
53658;PMS5003;41524;35.624;139.698;2023-03-17T03:30:10;15.00;14.00;
53658;PMS5003;41524;35.624;139.698;2023-03-17T03:35:09;23.00;22.00;
53658;PMS5003;41524;35.624;139.698;2023-03-17T03:40:11;21.00;20.00;
53658;PMS5003;41524;35.624;139.698;2023-03-17T03:45:09;19.00;16.00;
53658;PMS5003;41524;35.624;139.698;2023-03-17T03:50:10;21.00;17.00;
53658;PMS5003;41524;35.624;139.698;2023-03-17T03:55:09;18.00;16.00;
53658;PMS5003;41524;35.624;139.698;2023-03-17T04:00:15;18.00;13.00;
53658;PMS5003;41524;35.624;139.698;2023-03-17T04:05:09;19.00;17.00;
53658;PMS5003;41524;35.624;139.698;2023-03-17T04:15:09;21.00;17.00;
53658;PMS5003;41524;35.624;139.698;2023-03-17T04:20:15;18.00;14.00;
53658;PMS5003;41524;35.624;139.698;2023-03-17T04:25:12;12.00;12.00;
53658;PMS5003;41524;35.624;139.698;2023-03-17T04:30:12;17.00;13.00;
53658;PMS5003;41524;35.624;139.698;2023-03-17T04:35:11;14.00;13.00;
53658;PMS5003;41524;35.624;139.698;2023-03-17T04:40:09;24.00;21.00;
53658;PMS5003;41524;35.624;139.698;2023-03-17T04:45:12;21.00;17.00;
53658;PMS5003;41524;35.624;139.698;2023-03-17T04:50:09;23.00;18.00;
53658;PMS5003;41524;35.624;139.698;2023-03-17T04:55:10;27.00;24.00;
53658;PMS5003;41524;35.624;139.698;2023-03-17T05:00:14;25.00;22.00;
53658;PMS5003;41524;35.624;139.698;2023-03-17T05:05:13;18.00;13.00;
53658;PMS5003;41524;35.624;139.698;2023-03-17T05:10:14;15.00;15.00;
53658;PMS5003;41524;35.624;139.698;2023-03-17T05:15:09;18.00;17.00;
53658;PMS5003;41524;35.624;139.698;2023-03-17T05:20:09;19.00;18.00;
53658;PMS5003;41524;35.624;139.698;2023-03-17T05:25:14;27.00;21.00;
53658;PMS5003;41524;35.624;139.698;2023-03-17T05:30:09;16.00;16.00;
53658;PMS5003;41524;35.624;139.698;2023-03-17T05:35:10;25.00;21.00;
53658;PMS5003;41524;35.624;139.698;2023-03-17T05:40:10;18.00;16.00;
53658;PMS5003;41524;35.624;139.698;2023-03-17T05:45:09;27.00;24.00;
53658;PMS5003;41524;35.624;139.698;2023-03-17T05:50:16;29.00;27.00;
53658;PMS5003;41524;35.624;139.698;2023-03-17T05:55:14;21.00;19.00;
53658;PMS5003;41524;35.624;139.698;2023-03-17T06:00:10;19.00;17.00;
53658;PMS5003;41524;35.624;139.698;2023-03-17T06:05:14;21.00;18.00;
53658;PMS5003;41524;35.624;139.698;2023-03-17T06:10:11;19.00;17.00;
53658;PMS5003;41524;35.624;139.698;2023-03-17T06:15:08;21.00;20.00;
53658;PMS5003;41524;35.624;139.698;2023-03-17T06:20:14;23.00;21.00;
53658;PMS5003;41524;35.624;139.698;2023-03-17T06:25:14;19.00;16.00;
53658;PMS5003;41524;35.624;139.698;2023-03-17T06:30:09;20.00;19.00;
53658;PMS5003;41524;35.624;139.698;2023-03-17T06:35:16;19.00;18.00;
53658;PMS5003;41524;35.624;139.698;2023-03-17T06:40:10;24.00;22.00;
53658;PMS5003;41524;35.624;139.698;2023-03-17T06:45:09;19.00;19.00;
53658;PMS5003;41524;35.624;139.698;2023-03-17T06:50:20;28.00;23.00;
53658;PMS5003;41524;35.624;139.698;2023-03-17T06:55:15;20.00;16.00;
53658;PMS5003;41524;35.624;139.698;2023-03-17T07:00:09;24.00;20.00;
53658;PMS5003;41524;35.624;139.698;2023-03-17T07:05:14;25.00;24.00;
53658;PMS5003;41524;35.624;139.698;2023-03-17T07:10:12;20.00;19.00;
53658;PMS5003;41524;35.624;139.698;2023-03-17T07:15:09;22.00;18.00;
53658;PMS5003;41524;35.624;139.698;2023-03-17T07:20:09;19.00;17.00;
53658;PMS5003;41524;35.624;139.698;2023-03-17T07:25:14;21.00;18.00;
53658;PMS5003;41524;35.624;139.698;2023-03-17T07:30:09;14.00;14.00;
53658;PMS5003;41524;35.624;139.698;2023-03-17T07:35:10;27.00;23.00;
53658;PMS5003;41524;35.624;139.698;2023-03-17T07:40:15;16.00;16.00;
53658;PMS5003;41524;35.624;139.698;2023-03-17T07:45:09;25.00;19.00;
53658;PMS5003;41524;35.624;139.698;2023-03-17T07:50:14;17.00;17.00;
53658;PMS5003;41524;35.624;139.698;2023-03-17T07:55:11;17.00;17.00;
53658;PMS5003;41524;35.624;139.698;2023-03-17T08:00:10;24.00;22.00;
53658;PMS5003;41524;35.624;139.698;2023-03-17T08:05:14;23.00;21.00;
53658;PMS5003;41524;35.624;139.698;2023-03-17T08:10:13;32.00;21.00;
53658;PMS5003;41524;35.624;139.698;2023-03-17T08:15:09;25.00;23.00;
53658;PMS5003;41524;35.624;139.698;2023-03-17T08:20:20;27.00;26.00;
53658;PMS5003;41524;35.624;139.698;2023-03-17T08:25:10;19.00;17.00;
53658;PMS5003;41524;35.624;139.698;2023-03-17T08:30:10;24.00;24.00;
53658;PMS5003;41524;35.624;139.698;2023-03-17T08:35:14;21.00;21.00;
53658;PMS5003;41524;35.624;139.698;2023-03-17T08:40:12;31.00;29.00;
53658;PMS5003;41524;35.624;139.698;2023-03-17T08:45:10;28.00;25.00;
53658;PMS5003;41524;35.624;139.698;2023-03-17T08:50:10;32.00;28.00;
53658;PMS5003;41524;35.624;139.698;2023-03-17T08:55:10;23.00;18.00;
53658;PMS5003;41524;35.624;139.698;2023-03-17T09:00:16;24.00;19.00;
53658;PMS5003;41524;35.624;139.698;2023-03-17T09:05:10;31.00;30.00;
53658;PMS5003;41524;35.624;139.698;2023-03-17T09:10:10;23.00;22.00;
53658;PMS5003;41524;35.624;139.698;2023-03-17T09:15:14;20.00;17.00;
53658;PMS5003;41524;35.624;139.698;2023-03-17T09:20:12;31.00;25.00;
53658;PMS5003;41524;35.624;139.698;2023-03-17T09:25:14;20.00;18.00;
53658;PMS5003;41524;35.624;139.698;2023-03-17T09:30:09;33.00;27.00;
53658;PMS5003;41524;35.624;139.698;2023-03-17T09:35:09;30.00;30.00;
53658;PMS5003;41524;35.624;139.698;2023-03-17T09:40:11;27.00;24.00;
53658;PMS5003;41524;35.624;139.698;2023-03-17T09:45:15;20.00;19.00;
53658;PMS5003;41524;35.624;139.698;2023-03-17T09:50:10;24.00;21.00;
53658;PMS5003;41524;35.624;139.698;2023-03-17T09:55:17;25.00;24.00;
53658;PMS5003;41524;35.624;139.698;2023-03-17T10:00:16;27.00;23.00;
53658;PMS5003;41524;35.624;139.698;2023-03-17T10:05:15;16.00;16.00;
53658;PMS5003;41524;35.624;139.698;2023-03-17T10:10:12;25.00;23.00;
53658;PMS5003;41524;35.624;139.698;2023-03-17T10:15:12;19.00;18.00;
53658;PMS5003;41524;35.624;139.698;2023-03-17T10:20:11;20.00;17.00;
53658;PMS5003;41524;35.624;139.698;2023-03-17T10:25:12;20.00;19.00;
53658;PMS5003;41524;35.624;139.698;2023-03-17T10:30:15;26.00;20.00;
53658;PMS5003;41524;35.624;139.698;2023-03-17T10:35:09;17.00;17.00;
53658;PMS5003;41524;35.624;139.698;2023-03-17T10:40:18;19.00;16.00;
53658;PMS5003;41524;35.624;139.698;2023-03-17T10:45:16;18.00;17.00;
53658;PMS5003;41524;35.624;139.698;2023-03-17T10:50:24;21.00;21.00;
53658;PMS5003;41524;35.624;139.698;2023-03-17T10:55:21;17.00;17.00;
53658;PMS5003;41524;35.624;139.698;2023-03-17T11:00:16;21.00;19.00;
53658;PMS5003;41524;35.624;139.698;2023-03-17T11:05:16;21.00;20.00;
53658;PMS5003;41524;35.624;139.698;2023-03-17T11:15:14;22.00;22.00;
53658;PMS5003;41524;35.624;139.698;2023-03-17T11:20:13;18.00;13.00;
53658;PMS5003;41524;35.624;139.698;2023-03-17T11:25:16;14.00;14.00;
53658;PMS5003;41524;35.624;139.698;2023-03-17T11:30:15;19.00;17.00;
53658;PMS5003;41524;35.624;139.698;2023-03-17T11:35:21;16.00;16.00;
53658;PMS5003;41524;35.624;139.698;2023-03-17T11:40:12;22.00;18.00;
53658;PMS5003;41524;35.624;139.698;2023-03-17T11:45:13;19.00;15.00;
53658;PMS5003;41524;35.624;139.698;2023-03-17T11:50:13;16.00;15.00;
53658;PMS5003;41524;35.624;139.698;2023-03-17T11:55:17;13.00;13.00;
53658;PMS5003;41524;35.624;139.698;2023-03-17T12:00:12;17.00;16.00;
53658;PMS5003;41524;35.624;139.698;2023-03-17T12:05:09;14.00;13.00;
53658;PMS5003;41524;35.624;139.698;2023-03-17T12:10:21;15.00;13.00;
53658;PMS5003;41524;35.624;139.698;2023-03-17T12:15:16;13.00;13.00;
53658;PMS5003;41524;35.624;139.698;2023-03-17T12:20:11;15.00;15.00;
53658;PMS5003;41524;35.624;139.698;2023-03-17T12:25:11;14.00;13.00;
53658;PMS5003;41524;35.624;139.698;2023-03-17T12:30:16;14.00;14.00;
53658;PMS5003;41524;35.624;139.698;2023-03-17T12:35:17;16.00;14.00;
53658;PMS5003;41524;35.624;139.698;2023-03-17T12:40:16;17.00;15.00;
53658;PMS5003;41524;35.624;139.698;2023-03-17T12:45:20;17.00;16.00;
53658;PMS5003;41524;35.624;139.698;2023-03-17T12:50:18;24.00;22.00;
53658;PMS5003;41524;35.624;139.698;2023-03-17T12:55:21;19.00;19.00;
53658;PMS5003;41524;35.624;139.698;2023-03-17T13:00:19;17.00;16.00;
53658;PMS5003;41524;35.624;139.698;2023-03-17T13:05:14;12.00;12.00;
53658;PMS5003;41524;35.624;139.698;2023-03-17T13:10:11;22.00;16.00;
53658;PMS5003;41524;35.624;139.698;2023-03-17T13:15:20;19.00;16.00;
53658;PMS5003;41524;35.624;139.698;2023-03-17T13:20:16;19.00;18.00;
53658;PMS5003;41524;35.624;139.698;2023-03-17T13:25:14;12.00;12.00;
53658;PMS5003;41524;35.624;139.698;2023-03-17T13:31:32;20.00;16.00;
53658;PMS5003;41524;35.624;139.698;2023-03-17T13:35:16;16.00;15.00;
53658;PMS5003;41524;35.624;139.698;2023-03-17T13:40:17;16.00;15.00;
53658;PMS5003;41524;35.624;139.698;2023-03-17T13:45:12;16.00;16.00;
53658;PMS5003;41524;35.624;139.698;2023-03-17T13:50:12;19.00;16.00;
53658;PMS5003;41524;35.624;139.698;2023-03-17T13:55:41;19.00;17.00;
53658;PMS5003;41524;35.624;139.698;2023-03-17T14:00:18;15.00;14.00;
53658;PMS5003;41524;35.624;139.698;2023-03-17T14:05:17;17.00;17.00;
53658;PMS5003;41524;35.624;139.698;2023-03-17T14:10:15;22.00;21.00;
53658;PMS5003;41524;35.624;139.698;2023-03-17T14:15:20;16.00;14.00;
53658;PMS5003;41524;35.624;139.698;2023-03-17T14:20:19;17.00;16.00;
53658;PMS5003;41524;35.624;139.698;2023-03-17T14:25:13;21.00;21.00;
53658;PMS5003;41524;35.624;139.698;2023-03-17T14:30:15;20.00;19.00;
53658;PMS5003;41524;35.624;139.698;2023-03-17T14:35:11;21.00;20.00;
53658;PMS5003;41524;35.624;139.698;2023-03-17T14:40:18;18.00;18.00;
53658;PMS5003;41524;35.624;139.698;2023-03-17T14:45:19;23.00;21.00;
53658;PMS5003;41524;35.624;139.698;2023-03-17T14:50:17;17.00;17.00;
53658;PMS5003;41524;35.624;139.698;2023-03-17T14:55:14;25.00;24.00;
53658;PMS5003;41524;35.624;139.698;2023-03-17T15:00:31;24.00;23.00;
53658;PMS5003;41524;35.624;139.698;2023-03-17T15:05:19;26.00;23.00;
53658;PMS5003;41524;35.624;139.698;2023-03-17T15:10:14;20.00;20.00;
53658;PMS5003;41524;35.624;139.698;2023-03-17T15:15:17;26.00;23.00;
53658;PMS5003;41524;35.624;139.698;2023-03-17T15:20:12;20.00;20.00;
53658;PMS5003;41524;35.624;139.698;2023-03-17T15:25:16;25.00;24.00;
53658;PMS5003;41524;35.624;139.698;2023-03-17T15:30:10;19.00;19.00;
53658;PMS5003;41524;35.624;139.698;2023-03-17T15:35:15;25.00;24.00;
53658;PMS5003;41524;35.624;139.698;2023-03-17T15:40:12;15.00;14.00;
53658;PMS5003;41524;35.624;139.698;2023-03-17T15:45:14;13.00;12.00;
53658;PMS5003;41524;35.624;139.698;2023-03-17T15:50:13;11.00;11.00;
53658;PMS5003;41524;35.624;139.698;2023-03-17T15:55:14;17.00;15.00;
53658;PMS5003;41524;35.624;139.698;2023-03-17T16:00:16;14.00;11.00;
53658;PMS5003;41524;35.624;139.698;2023-03-17T16:05:10;17.00;15.00;
53658;PMS5003;41524;35.624;139.698;2023-03-17T16:10:15;15.00;14.00;
53658;PMS5003;41524;35.624;139.698;2023-03-17T16:15:14;12.00;12.00;
53658;PMS5003;41524;35.624;139.698;2023-03-17T16:20:17;12.00;12.00;
53658;PMS5003;41524;35.624;139.698;2023-03-17T16:25:17;10.00;9.00;
53658;PMS5003;41524;35.624;139.698;2023-03-17T16:30:13;14.00;14.00;
53658;PMS5003;41524;35.624;139.698;2023-03-17T16:35:12;12.00;11.00;
53658;PMS5003;41524;35.624;139.698;2023-03-17T16:40:20;11.00;11.00;
53658;PMS5003;41524;35.624;139.698;2023-03-17T16:45:12;12.00;12.00;
53658;PMS5003;41524;35.624;139.698;2023-03-17T16:50:14;10.00;10.00;
53658;PMS5003;41524;35.624;139.698;2023-03-17T16:55:09;12.00;11.00;
53658;PMS5003;41524;35.624;139.698;2023-03-17T17:00:12;11.00;11.00;
53658;PMS5003;41524;35.624;139.698;2023-03-17T17:05:13;12.00;11.00;
53658;PMS5003;41524;35.624;139.698;2023-03-17T17:10:10;12.00;11.00;
53658;PMS5003;41524;35.624;139.698;2023-03-17T17:15:10;13.00;12.00;
53658;PMS5003;41524;35.624;139.698;2023-03-17T17:20:13;23.00;22.00;
53658;PMS5003;41524;35.624;139.698;2023-03-17T17:25:09;16.00;15.00;
53658;PMS5003;41524;35.624;139.698;2023-03-17T17:30:10;18.00;18.00;
53658;PMS5003;41524;35.624;139.698;2023-03-17T17:35:10;11.00;11.00;
53658;PMS5003;41524;35.624;139.698;2023-03-17T17:40:11;16.00;15.00;
53658;PMS5003;41524;35.624;139.698;2023-03-17T17:45:10;16.00;14.00;
53658;PMS5003;41524;35.624;139.698;2023-03-17T17:50:11;11.00;10.00;
53658;PMS5003;41524;35.624;139.698;2023-03-17T17:55:09;13.00;12.00;
53658;PMS5003;41524;35.624;139.698;2023-03-17T18:00:15;13.00;13.00;
53658;PMS5003;41524;35.624;139.698;2023-03-17T18:05:09;15.00;11.00;
53658;PMS5003;41524;35.624;139.698;2023-03-17T18:10:10;10.00;10.00;
53658;PMS5003;41524;35.624;139.698;2023-03-17T18:15:10;15.00;10.00;
53658;PMS5003;41524;35.624;139.698;2023-03-17T18:20:10;17.00;16.00;
53658;PMS5003;41524;35.624;139.698;2023-03-17T18:25:10;11.00;10.00;
53658;PMS5003;41524;35.624;139.698;2023-03-17T18:30:13;13.00;12.00;
53658;PMS5003;41524;35.624;139.698;2023-03-17T18:35:14;13.00;12.00;
53658;PMS5003;41524;35.624;139.698;2023-03-17T18:40:10;12.00;11.00;
53658;PMS5003;41524;35.624;139.698;2023-03-17T18:45:09;18.00;12.00;
53658;PMS5003;41524;35.624;139.698;2023-03-17T18:50:10;10.00;10.00;
53658;PMS5003;41524;35.624;139.698;2023-03-17T18:55:10;12.00;11.00;
53658;PMS5003;41524;35.624;139.698;2023-03-17T19:00:09;12.00;11.00;
53658;PMS5003;41524;35.624;139.698;2023-03-17T19:05:08;19.00;19.00;
53658;PMS5003;41524;35.624;139.698;2023-03-17T19:10:10;14.00;14.00;
53658;PMS5003;41524;35.624;139.698;2023-03-17T19:15:14;17.00;17.00;
53658;PMS5003;41524;35.624;139.698;2023-03-17T19:20:10;14.00;13.00;
53658;PMS5003;41524;35.624;139.698;2023-03-17T19:25:08;18.00;17.00;
53658;PMS5003;41524;35.624;139.698;2023-03-17T19:30:09;13.00;13.00;
53658;PMS5003;41524;35.624;139.698;2023-03-17T19:35:08;22.00;21.00;
53658;PMS5003;41524;35.624;139.698;2023-03-17T19:40:09;17.00;16.00;
53658;PMS5003;41524;35.624;139.698;2023-03-17T19:45:09;19.00;19.00;
53658;PMS5003;41524;35.624;139.698;2023-03-17T19:50:14;19.00;18.00;
53658;PMS5003;41524;35.624;139.698;2023-03-17T19:55:09;16.00;13.00;
53658;PMS5003;41524;35.624;139.698;2023-03-17T20:00:10;15.00;15.00;
53658;PMS5003;41524;35.624;139.698;2023-03-17T20:05:09;22.00;22.00;
53658;PMS5003;41524;35.624;139.698;2023-03-17T20:10:09;16.00;15.00;
53658;PMS5003;41524;35.624;139.698;2023-03-17T20:15:12;17.00;15.00;
53658;PMS5003;41524;35.624;139.698;2023-03-17T20:20:10;18.00;13.00;
53658;PMS5003;41524;35.624;139.698;2023-03-17T20:25:14;16.00;16.00;
53658;PMS5003;41524;35.624;139.698;2023-03-17T20:30:10;15.00;13.00;
53658;PMS5003;41524;35.624;139.698;2023-03-17T20:35:09;13.00;13.00;
53658;PMS5003;41524;35.624;139.698;2023-03-17T20:40:09;17.00;15.00;
53658;PMS5003;41524;35.624;139.698;2023-03-17T20:45:11;25.00;21.00;
53658;PMS5003;41524;35.624;139.698;2023-03-17T20:50:09;23.00;23.00;
53658;PMS5003;41524;35.624;139.698;2023-03-17T20:55:15;24.00;21.00;
53658;PMS5003;41524;35.624;139.698;2023-03-17T21:00:11;26.00;23.00;
53658;PMS5003;41524;35.624;139.698;2023-03-17T21:05:12;16.00;15.00;
53658;PMS5003;41524;35.624;139.698;2023-03-17T21:10:14;27.00;22.00;
53658;PMS5003;41524;35.624;139.698;2023-03-17T21:15:09;24.00;24.00;
53658;PMS5003;41524;35.624;139.698;2023-03-17T21:20:12;18.00;17.00;
53658;PMS5003;41524;35.624;139.698;2023-03-17T21:25:11;19.00;16.00;
53658;PMS5003;41524;35.624;139.698;2023-03-17T21:30:10;20.00;19.00;
53658;PMS5003;41524;35.624;139.698;2023-03-17T21:35:11;15.00;13.00;
53658;PMS5003;41524;35.624;139.698;2023-03-17T21:40:11;24.00;22.00;
53658;PMS5003;41524;35.624;139.698;2023-03-17T21:45:14;24.00;22.00;
53658;PMS5003;41524;35.624;139.698;2023-03-17T21:50:10;17.00;17.00;
53658;PMS5003;41524;35.624;139.698;2023-03-17T21:55:10;20.00;18.00;
53658;PMS5003;41524;35.624;139.698;2023-03-17T22:00:10;24.00;22.00;
53658;PMS5003;41524;35.624;139.698;2023-03-17T22:05:10;21.00;20.00;
53658;PMS5003;41524;35.624;139.698;2023-03-17T22:10:10;26.00;25.00;
53658;PMS5003;41524;35.624;139.698;2023-03-17T22:15:09;22.00;22.00;
53658;PMS5003;41524;35.624;139.698;2023-03-17T22:20:10;25.00;22.00;
53658;PMS5003;41524;35.624;139.698;2023-03-17T22:25:13;27.00;24.00;
53658;PMS5003;41524;35.624;139.698;2023-03-17T22:30:11;19.00;18.00;
53658;PMS5003;41524;35.624;139.698;2023-03-17T22:35:09;21.00;20.00;
53658;PMS5003;41524;35.624;139.698;2023-03-17T22:45:09;21.00;21.00;
53658;PMS5003;41524;35.624;139.698;2023-03-17T22:50:14;19.00;15.00;
53658;PMS5003;41524;35.624;139.698;2023-03-17T22:55:13;21.00;18.00;
53658;PMS5003;41524;35.624;139.698;2023-03-17T23:00:11;17.00;16.00;
53658;PMS5003;41524;35.624;139.698;2023-03-17T23:05:14;18.00;17.00;
53658;PMS5003;41524;35.624;139.698;2023-03-17T23:10:14;17.00;17.00;
53658;PMS5003;41524;35.624;139.698;2023-03-17T23:15:10;13.00;13.00;
53658;PMS5003;41524;35.624;139.698;2023-03-17T23:20:10;17.00;17.00;
53658;PMS5003;41524;35.624;139.698;2023-03-17T23:25:26;15.00;13.00;
53658;PMS5003;41524;35.624;139.698;2023-03-17T23:30:09;18.00;17.00;
53658;PMS5003;41524;35.624;139.698;2023-03-17T23:35:20;16.00;14.00;
53658;PMS5003;41524;35.624;139.698;2023-03-17T23:40:11;21.00;17.00;
53658;PMS5003;41524;35.624;139.698;2023-03-17T23:45:10;20.00;19.00;
53658;PMS5003;41524;35.624;139.698;2023-03-17T23:50:16;18.00;17.00;
53658;PMS5003;41524;35.624;139.698;2023-03-17T23:55:14;18.00;17.00;
